createdAt,value
2022-12-23T00:00:44.431Z,27.65
2022-12-23T00:03:11.591Z,27.75
2022-12-23T00:05:39.794Z,26.73
2022-12-23T00:08:07.770Z,26.98
2022-12-23T00:10:38.135Z,26.88
2022-12-23T00:13:23.394Z,26.75
2022-12-23T00:15:50.177Z,27.85
2022-12-23T00:18:17.049Z,27.77
2022-12-23T00:20:43.839Z,26.33
2022-12-23T00:23:10.651Z,28.83
2022-12-23T00:25:42.309Z,28.25
2022-12-23T00:28:11.667Z,29.25
2022-12-23T00:30:51.880Z,28.98
2022-12-23T00:33:23.470Z,30.05
2022-12-23T00:35:50.809Z,32.42
2022-12-23T00:38:38.641Z,31.25
2022-12-23T00:41:43.929Z,31.20
2022-12-23T00:44:10.931Z,31.13
2022-12-23T00:49:23.492Z,30.80
2022-12-23T00:51:50.698Z,32.13
2022-12-23T00:54:17.942Z,31.70
2022-12-23T00:56:44.965Z,31.95
2022-12-23T01:01:57.252Z,32.00
2022-12-23T01:04:42.895Z,31.63
2022-12-23T01:07:10.322Z,31.00
2022-12-23T01:09:37.169Z,30.65
2022-12-23T01:12:04.405Z,29.50
2022-12-23T01:14:32.044Z,33.90
2022-12-23T01:16:58.961Z,32.28
2022-12-23T01:19:26.160Z,33.45
2022-12-23T01:21:52.881Z,34.10
2022-12-23T01:24:19.941Z,33.25
2022-12-23T01:29:13.571Z,33.38
2022-12-23T01:31:40.357Z,33.58
2022-12-23T01:34:07.242Z,31.13
2022-12-23T01:36:34.051Z,35.58
2022-12-23T01:39:00.908Z,34.03
2022-12-23T01:41:48.838Z,34.15
2022-12-23T01:44:48.776Z,33.05
2022-12-23T01:47:34.167Z,32.45
2022-12-23T01:50:27.057Z,33.58
2022-12-23T01:53:17.183Z,31.38
2022-12-23T01:55:59.260Z,34.45
2022-12-23T01:58:48.496Z,35.13
2022-12-23T02:01:34.061Z,35.58
2022-12-23T02:04:11.393Z,35.00
2022-12-23T02:07:01.413Z,34.33
2022-12-23T02:09:29.451Z,30.38
2022-12-23T02:12:05.183Z,28.60
2022-12-23T02:15:09.519Z,26.60
2022-12-23T02:17:42.329Z,24.92
2022-12-23T02:20:53.897Z,23.63
2022-12-23T02:24:08.793Z,25.27
2022-12-23T02:26:53.610Z,23.52
2022-12-23T02:29:57.692Z,24.30
2022-12-23T02:32:42.848Z,24.23
2022-12-23T02:35:14.897Z,23.52
2022-12-23T02:37:47.412Z,23.48
2022-12-23T02:40:38.620Z,24.38
2022-12-23T02:43:29.896Z,23.25
2022-12-23T02:46:15.258Z,25.60
2022-12-23T02:48:49.138Z,24.90
2022-12-23T02:51:17.018Z,22.63
2022-12-23T02:53:59.562Z,23.08
2022-12-23T02:56:29.512Z,22.15
2022-12-23T02:59:01.811Z,23.60
2022-12-23T03:01:31.694Z,23.40
2022-12-23T03:03:58.675Z,23.48
2022-12-23T03:06:32.990Z,22.30
2022-12-23T03:09:00.611Z,25.15
2022-12-23T03:11:51.004Z,23.10
2022-12-23T03:14:50.260Z,23.95
2022-12-23T03:17:39.665Z,23.30
2022-12-23T03:20:35.880Z,23.45
2022-12-23T03:23:23.122Z,23.25
2022-12-23T03:26:21.809Z,23.23
2022-12-23T03:29:01.354Z,22.27
2022-12-23T03:31:31.179Z,23.33
2022-12-23T03:34:05.467Z,23.58
2022-12-23T03:36:37.072Z,21.33
2022-12-23T03:39:07.723Z,21.15
2022-12-23T03:41:40.939Z,21.08
2022-12-23T03:44:16.854Z,21.48
2022-12-23T03:47:00.765Z,20.65
2022-12-23T03:49:38.025Z,21.55
2022-12-23T03:52:20.769Z,21.63
2022-12-23T03:55:00.043Z,21.92
2022-12-23T03:57:32.371Z,21.23
2022-12-23T03:59:59.170Z,22.17
2022-12-23T04:02:50.205Z,22.15
2022-12-23T04:05:32.179Z,20.88
2022-12-23T04:08:01.722Z,21.38
2022-12-23T04:10:28.822Z,23.08
2022-12-23T04:15:23.998Z,20.65
2022-12-23T04:17:52.018Z,21.52
2022-12-23T04:20:19.087Z,21.38
2022-12-23T04:25:14.639Z,20.25
2022-12-23T04:27:41.801Z,22.50
2022-12-23T04:30:10.537Z,22.13
2022-12-23T04:32:38.067Z,23.85
2022-12-23T04:35:05.342Z,24.02
2022-12-23T04:37:32.109Z,25.23
2022-12-23T04:39:59.011Z,23.25
2022-12-23T04:42:25.936Z,24.75
2022-12-23T04:44:52.712Z,24.48
2022-12-23T04:47:19.509Z,23.20
2022-12-23T04:49:46.435Z,23.73
2022-12-23T04:52:13.190Z,24.25
2022-12-23T04:54:45.812Z,24.50
2022-12-23T04:57:13.263Z,23.08
2022-12-23T04:59:40.104Z,21.75
2022-12-23T05:02:08.736Z,22.67
2022-12-23T05:04:35.807Z,20.13
2022-12-23T05:09:29.250Z,22.83
2022-12-23T05:11:55.951Z,19.75
2022-12-23T05:14:22.796Z,23.17
2022-12-23T05:16:49.612Z,21.15
2022-12-23T05:19:16.449Z,22.45
2022-12-23T05:21:43.205Z,22.45
2022-12-23T05:24:09.979Z,22.33
2022-12-23T05:26:36.830Z,22.70
2022-12-23T05:29:03.631Z,23.85
2022-12-23T05:31:30.566Z,22.45
2022-12-23T05:34:02.337Z,20.60
2022-12-23T05:36:32.698Z,22.10
2022-12-23T05:38:59.403Z,22.35
2022-12-23T05:41:26.172Z,20.58
2022-12-23T05:43:52.948Z,21.67
2022-12-23T05:46:25.956Z,20.45
2022-12-23T05:48:53.527Z,19.63
2022-12-23T05:51:20.375Z,19.40
2022-12-23T05:53:47.112Z,19.92
2022-12-23T05:56:13.848Z,20.85
2022-12-23T05:58:40.574Z,18.83
2022-12-23T06:01:08.323Z,18.90
2022-12-23T06:03:35.296Z,18.05
2022-12-23T06:08:28.854Z,16.95
2022-12-23T06:10:55.651Z,18.02
2022-12-23T06:13:22.467Z,18.23
2022-12-23T06:15:49.374Z,18.00
2022-12-23T06:18:16.191Z,17.85
2022-12-23T06:20:46.657Z,16.27
2022-12-23T06:23:13.604Z,16.27
2022-12-23T06:25:40.397Z,17.73
2022-12-23T06:28:08.020Z,17.02
2022-12-23T06:30:35.189Z,16.00
2022-12-23T06:35:28.772Z,17.75
2022-12-23T06:37:55.705Z,18.52
2022-12-23T06:40:22.512Z,18.67
2022-12-23T06:42:49.325Z,18.02
2022-12-23T06:45:16.178Z,17.70
2022-12-23T06:47:42.998Z,18.67
2022-12-23T06:50:10.309Z,17.85
2022-12-23T06:52:37.094Z,17.33
2022-12-23T06:55:04.175Z,17.35
2022-12-23T06:59:57.522Z,17.20
2022-12-23T07:02:24.786Z,17.55
2022-12-23T07:04:51.574Z,17.95
2022-12-23T07:07:18.677Z,17.70
2022-12-23T07:12:12.075Z,17.13
2022-12-23T07:14:38.853Z,17.98
2022-12-23T07:17:05.754Z,16.73
2022-12-23T07:19:32.553Z,17.48
2022-12-23T07:21:59.326Z,18.42
2022-12-23T07:24:26.084Z,18.35
2022-12-23T07:26:53.020Z,20.00
2022-12-23T07:29:19.839Z,21.13
2022-12-23T07:31:46.587Z,21.13
2022-12-23T07:34:13.415Z,20.33
2022-12-23T07:36:40.219Z,21.75
2022-12-23T07:39:07.009Z,19.42
2022-12-23T07:41:33.772Z,17.40
2022-12-23T07:44:00.536Z,17.75
2022-12-23T07:46:27.396Z,16.25
2022-12-23T07:48:54.234Z,15.27
2022-12-23T07:51:21.062Z,15.60
2022-12-23T07:53:51.113Z,15.52
2022-12-23T07:56:18.852Z,15.68
2022-12-23T07:58:52.654Z,14.55
2022-12-23T08:01:20.623Z,63.70
2022-12-23T08:03:47.991Z,15.95
2022-12-23T08:06:16.214Z,14.85
2022-12-23T08:08:45.345Z,15.23
2022-12-23T08:11:13.298Z,15.18
2022-12-23T08:13:42.678Z,15.32
2022-12-23T08:16:10.675Z,14.23
2022-12-23T08:18:39.247Z,15.82
2022-12-23T08:21:19.026Z,16.67
2022-12-23T08:26:20.970Z,14.82
2022-12-23T08:28:51.464Z,15.98
2022-12-23T08:31:31.854Z,16.75
2022-12-23T08:34:00.041Z,14.57
2022-12-23T08:36:32.602Z,16.83
2022-12-23T08:39:01.497Z,17.45
2022-12-23T08:41:31.682Z,17.00
2022-12-23T08:43:58.688Z,17.15
2022-12-23T08:48:53.063Z,15.77
2022-12-23T08:51:21.351Z,16.88
2022-12-23T08:53:48.653Z,17.58
2022-12-23T08:56:22.712Z,20.70
2022-12-23T08:58:51.119Z,17.80
2022-12-23T09:01:19.654Z,18.83
2022-12-23T09:03:47.064Z,18.27
2022-12-23T09:06:28.677Z,18.52
2022-12-23T09:08:57.328Z,19.02
2022-12-23T09:11:26.612Z,19.55
2022-12-23T09:13:54.372Z,19.17
2022-12-23T09:16:22.254Z,18.60
2022-12-23T09:18:49.189Z,19.15
2022-12-23T09:21:19.198Z,20.10
2022-12-23T09:23:46.485Z,19.13
2022-12-23T09:26:22.304Z,19.65
2022-12-23T09:28:49.208Z,21.08
2022-12-23T09:31:16.224Z,21.58
2022-12-23T09:36:09.959Z,21.70
2022-12-23T09:38:37.697Z,19.55
2022-12-23T09:41:15.180Z,19.92
2022-12-23T09:44:02.168Z,18.95
2022-12-23T09:46:32.584Z,19.45
2022-12-23T09:49:13.018Z,18.98
2022-12-23T09:51:39.871Z,20.55
2022-12-23T09:54:23.005Z,21.48
2022-12-23T09:57:00.238Z,21.02
2022-12-23T09:59:51.105Z,19.60
2022-12-23T10:02:35.721Z,24.17
2022-12-23T10:05:21.411Z,22.73
2022-12-23T10:08:02.542Z,24.58
2022-12-23T10:10:38.840Z,24.45
2022-12-23T10:13:08.138Z,23.95
2022-12-23T10:15:47.378Z,24.23
2022-12-23T10:18:39.975Z,23.98
2022-12-23T10:21:26.232Z,25.33
2022-12-23T10:23:55.170Z,25.88
2022-12-23T10:26:31.516Z,24.92
2022-12-23T10:29:19.692Z,25.30
2022-12-23T10:31:57.987Z,26.25
2022-12-23T10:34:52.268Z,26.27
2022-12-23T10:37:24.941Z,25.33
2022-12-23T10:40:17.487Z,24.95
2022-12-23T10:43:26.814Z,25.67
2022-12-23T10:46:17.781Z,25.15
2022-12-23T10:48:55.050Z,26.95
2022-12-23T10:51:47.997Z,26.00
2022-12-23T10:54:35.085Z,25.83
2022-12-23T10:57:03.367Z,25.88
2022-12-23T10:59:34.645Z,25.60
2022-12-23T11:02:11.514Z,26.10
2022-12-23T11:04:47.200Z,26.27
2022-12-23T11:10:18.490Z,26.35
2022-12-23T11:12:50.677Z,26.25
2022-12-23T11:15:33.755Z,25.38
2022-12-23T11:18:18.498Z,24.67
2022-12-23T11:21:00.828Z,26.08
2022-12-23T11:23:30.750Z,27.05
2022-12-23T11:26:02.071Z,25.08
2022-12-23T11:28:30.186Z,26.20
2022-12-23T11:31:08.711Z,25.75
2022-12-23T11:33:48.017Z,26.20
2022-12-23T11:36:23.897Z,26.00
2022-12-23T11:39:04.710Z,24.77
2022-12-23T11:41:44.138Z,23.98
2022-12-23T11:44:16.786Z,23.77
2022-12-23T11:46:43.538Z,25.70
2022-12-23T11:49:22.628Z,24.65
2022-12-23T11:52:00.925Z,24.90
2022-12-23T11:54:28.466Z,25.52
2022-12-23T11:56:56.058Z,25.63
2022-12-23T11:59:22.788Z,24.42
2022-12-23T12:01:49.790Z,25.67
2022-12-23T12:04:22.207Z,24.70
2022-12-23T12:06:56.087Z,24.30
2022-12-23T12:09:24.259Z,25.00
2022-12-23T12:12:07.178Z,25.33
2022-12-23T12:14:54.313Z,24.00
2022-12-23T12:17:44.309Z,24.63
2022-12-23T12:20:20.819Z,22.67
2022-12-23T12:22:57.420Z,23.50
2022-12-23T12:25:50.603Z,24.00
2022-12-23T12:28:37.600Z,24.52
2022-12-23T12:31:17.044Z,23.70
2022-12-23T12:34:12.380Z,22.63
2022-12-23T12:36:59.991Z,23.23
2022-12-23T12:39:38.104Z,24.20
2022-12-23T12:42:53.421Z,23.60
2022-12-23T12:45:24.703Z,22.58
2022-12-23T12:48:11.630Z,22.17
2022-12-23T12:51:04.438Z,21.40
2022-12-23T12:53:33.540Z,22.27
2022-12-23T12:56:14.685Z,22.63
2022-12-23T12:58:44.558Z,22.92
2022-12-23T13:01:23.936Z,22.90
2022-12-23T13:04:20.856Z,22.60
2022-12-23T13:06:51.374Z,21.85
2022-12-23T13:09:31.254Z,20.83
2022-12-23T13:12:19.309Z,20.27
2022-12-23T13:15:00.527Z,19.35
2022-12-23T13:17:42.617Z,19.55
2022-12-23T13:20:34.386Z,20.10
2022-12-23T13:23:41.681Z,18.50
2022-12-23T13:26:09.986Z,18.92
2022-12-23T13:29:04.626Z,19.15
2022-12-23T13:31:37.423Z,19.83
2022-12-23T13:34:25.261Z,20.02
2022-12-23T13:37:27.791Z,18.38
2022-12-23T13:40:09.625Z,19.80
2022-12-23T13:42:43.831Z,19.40
2022-12-23T13:45:16.576Z,31.42
2022-12-23T13:48:22.521Z,20.77
2022-12-23T13:51:03.914Z,19.55
2022-12-23T13:53:47.394Z,20.02
2022-12-23T13:56:22.383Z,20.75
2022-12-23T13:58:50.670Z,20.25
2022-12-23T14:01:21.999Z,20.63
2022-12-23T14:03:50.771Z,20.95
2022-12-23T14:06:26.375Z,20.15
2022-12-23T14:08:54.339Z,24.30
2022-12-23T14:11:24.614Z,26.38
2022-12-23T14:13:55.246Z,27.63
2022-12-23T14:16:30.978Z,28.77
2022-12-23T14:19:19.061Z,27.50
2022-12-23T14:22:07.896Z,29.10
2022-12-23T14:24:53.168Z,27.02
2022-12-23T14:27:38.468Z,29.48
2022-12-23T14:30:21.706Z,27.88
2022-12-23T14:32:52.358Z,28.60
2022-12-23T14:35:27.161Z,26.17
2022-12-23T14:38:14.186Z,26.58
2022-12-23T14:40:48.532Z,27.55
2022-12-23T14:43:43.611Z,27.90
2022-12-23T14:46:35.884Z,26.15
2022-12-23T14:49:37.127Z,27.23
2022-12-23T14:51:51.079Z,27.33
2022-12-23T14:54:36.662Z,26.67
2022-12-23T14:57:17.515Z,28.23
2022-12-23T15:00:01.380Z,28.83
2022-12-23T15:02:33.738Z,27.67
2022-12-23T15:05:01.239Z,28.38
2022-12-23T15:07:32.879Z,29.25
2022-12-23T15:10:02.230Z,27.92
2022-12-23T15:12:38.286Z,29.45
2022-12-23T15:15:17.398Z,29.80
2022-12-23T15:17:44.376Z,31.08
2022-12-23T15:20:11.216Z,29.90
2022-12-23T15:22:39.549Z,32.00
2022-12-23T15:25:20.622Z,31.70
2022-12-23T15:27:49.021Z,39.88
2022-12-23T15:30:17.342Z,32.72
2022-12-23T15:32:47.579Z,31.55
2022-12-23T15:35:26.339Z,31.67
2022-12-23T15:37:53.549Z,32.60
2022-12-23T15:40:38.160Z,31.98
2022-12-23T15:43:18.280Z,33.70
2022-12-23T15:45:45.047Z,32.72
2022-12-23T15:48:38.391Z,37.97
2022-12-23T15:51:57.910Z,34.65
2022-12-23T15:54:17.910Z,34.13
2022-12-23T15:56:49.167Z,31.58
2022-12-23T15:59:25.517Z,34.97
2022-12-23T16:01:53.096Z,33.15
2022-12-23T16:04:29.019Z,34.42
2022-12-23T16:06:56.423Z,32.72
2022-12-23T16:09:31.359Z,35.55
2022-12-23T16:12:21.543Z,36.95
2022-12-23T16:15:00.793Z,34.47
2022-12-23T16:17:33.412Z,34.90
2022-12-23T16:20:20.847Z,35.80
2022-12-23T16:22:50.873Z,34.17
2022-12-23T16:25:43.038Z,34.05
2022-12-23T16:28:21.603Z,33.03
2022-12-23T16:30:49.940Z,35.83
2022-12-23T16:33:36.985Z,35.40
2022-12-23T16:36:21.528Z,35.65
2022-12-23T16:38:50.958Z,35.67
2022-12-23T16:41:19.652Z,34.30
2022-12-23T16:43:51.843Z,34.13
2022-12-23T16:46:21.180Z,35.63
2022-12-23T16:48:58.472Z,35.90
2022-12-23T16:51:27.178Z,37.15
2022-12-23T16:53:56.396Z,34.88
2022-12-23T16:56:27.958Z,37.15
2022-12-23T16:58:54.662Z,37.10
2022-12-23T17:01:36.547Z,34.92
2022-12-23T17:04:04.395Z,33.75
2022-12-23T17:06:31.415Z,32.75
2022-12-23T17:11:45.320Z,32.00
2022-12-23T17:14:23.540Z,31.05
2022-12-23T17:16:51.359Z,31.17
2022-12-23T17:19:27.155Z,30.98
2022-12-23T17:22:02.856Z,30.75
2022-12-23T17:24:29.615Z,30.98
2022-12-23T17:26:59.242Z,31.35
2022-12-23T17:29:26.234Z,31.40
2022-12-23T17:34:22.379Z,30.48
2022-12-23T17:36:50.816Z,31.50
2022-12-23T17:39:18.896Z,32.70
2022-12-23T17:41:46.107Z,32.35
2022-12-23T17:44:17.295Z,31.92
2022-12-23T17:46:45.937Z,31.98
2022-12-23T17:49:12.881Z,32.33
2022-12-23T17:54:07.221Z,33.53
2022-12-23T17:59:00.851Z,33.03
2022-12-23T18:01:30.307Z,32.22
2022-12-23T18:03:58.871Z,30.92
2022-12-23T18:06:28.126Z,32.55
2022-12-23T18:08:57.363Z,33.00
2022-12-23T18:11:41.183Z,33.00
2022-12-23T18:14:23.765Z,34.70
2022-12-23T18:16:50.609Z,31.35
2022-12-23T18:19:20.080Z,29.90
2022-12-23T18:21:47.369Z,30.90
2022-12-23T18:24:14.371Z,30.48
2022-12-23T18:29:08.061Z,27.98
2022-12-23T18:34:03.979Z,29.67
2022-12-23T18:36:33.921Z,30.27
2022-12-23T18:39:00.832Z,29.33
2022-12-23T18:41:28.054Z,30.50
2022-12-23T18:43:55.057Z,31.23
2022-12-23T18:48:49.475Z,30.25
2022-12-23T18:51:18.524Z,28.75
2022-12-23T18:53:46.775Z,30.25
2022-12-23T18:56:21.317Z,30.45
2022-12-23T18:58:48.236Z,30.50
2022-12-23T19:01:16.565Z,30.50
2022-12-23T19:03:44.223Z,30.08
2022-12-23T19:06:14.117Z,30.27
2022-12-23T19:08:41.832Z,30.00
2022-12-23T19:11:20.625Z,29.55
2022-12-23T19:13:47.727Z,28.45
2022-12-23T19:16:17.032Z,28.63
2022-12-23T19:18:44.937Z,27.85
2022-12-23T19:21:12.452Z,27.58
2022-12-23T19:23:40.806Z,29.27
2022-12-23T19:26:10.127Z,29.63
2022-12-23T19:28:38.280Z,27.65
2022-12-23T19:31:11.012Z,28.17
2022-12-23T19:33:42.458Z,28.92
2022-12-23T19:36:22.739Z,28.38
2022-12-23T19:38:49.881Z,30.52
2022-12-23T19:41:17.483Z,30.30
2022-12-23T19:43:46.149Z,30.55
2022-12-23T19:46:14.832Z,30.67
2022-12-23T19:48:41.672Z,30.85
2022-12-23T19:51:11.549Z,32.10
2022-12-23T19:53:39.612Z,33.72
2022-12-23T19:56:11.360Z,32.90
2022-12-23T19:58:40.661Z,30.80
2022-12-23T20:01:12.881Z,34.38
2022-12-23T20:03:41.510Z,33.28
2022-12-23T20:06:16.026Z,31.77
2022-12-23T20:08:43.862Z,33.13
2022-12-23T20:11:14.266Z,32.17
2022-12-23T20:13:41.397Z,32.88
2022-12-23T20:16:08.731Z,32.47
2022-12-23T20:18:36.602Z,31.67
2022-12-23T20:21:04.042Z,33.17
2022-12-23T20:23:31.547Z,33.05
2022-12-23T20:25:58.418Z,32.90
2022-12-23T20:28:25.366Z,32.95
2022-12-23T20:33:26.314Z,31.88
2022-12-23T20:35:53.176Z,32.58
2022-12-23T20:38:20.468Z,33.97
2022-12-23T20:40:48.811Z,34.22
2022-12-23T20:43:15.679Z,34.50
2022-12-23T20:45:43.252Z,35.42
2022-12-23T20:48:10.422Z,33.70
2022-12-23T20:50:42.295Z,33.95
2022-12-23T20:53:10.530Z,33.30
2022-12-23T20:55:39.997Z,34.25
2022-12-23T20:58:25.092Z,33.38
2022-12-23T21:00:51.927Z,31.45
2022-12-23T21:03:18.869Z,33.00
2022-12-23T21:08:12.745Z,31.00
2022-12-23T21:10:39.637Z,32.88
2022-12-23T21:13:06.446Z,31.38
2022-12-23T21:15:33.422Z,31.60
2022-12-23T21:20:26.882Z,31.08
2022-12-23T21:22:53.592Z,30.35
2022-12-23T21:25:20.434Z,31.10
2022-12-23T21:27:47.134Z,30.92
2022-12-23T21:30:14.169Z,30.73
2022-12-23T21:32:40.927Z,31.77
2022-12-23T21:35:08.148Z,32.42
2022-12-23T21:37:34.965Z,30.10
2022-12-23T21:40:01.860Z,33.15
2022-12-23T21:42:28.647Z,31.73
2022-12-23T21:44:55.403Z,31.05
2022-12-23T21:47:22.112Z,32.45
2022-12-23T21:49:48.884Z,30.10
2022-12-23T21:52:15.671Z,30.88
2022-12-23T21:54:42.364Z,31.50
2022-12-23T21:57:09.590Z,32.05
2022-12-23T21:59:36.357Z,31.88
2022-12-23T22:02:03.164Z,29.90
2022-12-23T22:04:29.935Z,30.20
2022-12-23T22:06:56.686Z,32.95
2022-12-23T22:09:23.520Z,32.30
2022-12-23T22:11:50.339Z,32.25
2022-12-23T22:14:19.674Z,33.53
2022-12-23T22:16:46.821Z,32.33
2022-12-23T22:19:13.692Z,31.75
2022-12-23T22:21:42.431Z,32.60
2022-12-23T22:24:09.355Z,31.77
2022-12-23T22:26:36.419Z,31.00
2022-12-23T22:29:05.045Z,31.92
2022-12-23T22:31:39.909Z,31.98
2022-12-23T22:34:08.271Z,32.00
2022-12-23T22:36:35.301Z,32.25
2022-12-23T22:39:02.928Z,30.58
2022-12-23T22:41:30.790Z,31.13
2022-12-23T22:43:59.163Z,33.45
2022-12-23T22:46:26.689Z,30.90
2022-12-23T22:48:56.420Z,32.17
2022-12-23T22:51:25.714Z,32.30
2022-12-23T22:53:52.443Z,31.73
2022-12-23T22:56:21.789Z,31.17
2022-12-23T22:58:49.814Z,30.20
2022-12-23T23:01:24.201Z,31.92
2022-12-23T23:03:57.019Z,33.45
2022-12-23T23:06:26.123Z,32.13
2022-12-23T23:08:53.096Z,33.90
2022-12-23T23:13:46.902Z,32.22
2022-12-23T23:18:40.435Z,33.25
2022-12-23T23:21:08.590Z,33.75
2022-12-23T23:23:35.664Z,34.10
2022-12-23T23:26:02.801Z,33.97
2022-12-23T23:28:29.630Z,33.38
2022-12-23T23:31:31.491Z,35.20
2022-12-23T23:33:43.296Z,34.35
2022-12-23T23:36:10.782Z,34.33
2022-12-23T23:38:37.699Z,34.65
2022-12-23T23:41:04.840Z,35.42
2022-12-23T23:43:31.633Z,36.42
2022-12-23T23:45:58.474Z,33.85
2022-12-23T23:48:25.204Z,34.90
2022-12-23T23:50:52.101Z,35.47
2022-12-23T23:53:18.880Z,35.17
2022-12-23T23:55:45.692Z,35.65
2022-12-23T23:58:12.981Z,35.15
